Terminal Aerodrome Forecast
Issued by NWS Upton, NY

Home | Current Version | Previous Version | Text Only | Print | Product List | Glossary On
Versions: 1 2 3 4 5 6 7 8 9 10 11 12 13 14 15 16 17 18 19 20 21 22 23 24 25
000
FTUS41 KOKX 291700
TAFEWR
TAF
KEWR 291740Z 2918/3024 VRB04KT P6SM BKN250
     FM292000 15006KT P6SM BKN080
     FM300300 18007KT P6SM BKN040
     FM300400 19007KT 4SM -SN SCT020 OVC035
     FM300600 20007KT 2SM -SN OVC015
     FM301100 23008KT 2SM -SN OVC015
     FM301300 28011KT 4SM -SN OVC015
     FM301500 31015G23KT P6SM VCSH SCT015 BKN030
     FM301800 31016G25KT P6SM BKN035 BKN090
     FM302200 32021G31KT P6SM SCT030 SCT250=

USA.gov is the U.S. government's official web portal to all federal, state and local government web resources and services.